Time;durP1;ratioP1;P1;durP2;ratioP2;P2;SDS_P1;SDS_P2;PMS_P1;PMS_P2;Temp;Humidity;BMP_temperature;BMP_pressure;BME280_temperature;BME280_humidity;BME280_pressure;Samples;Min_cycle;Max_cycle;Signal;HPM_P1;HPM_P2
2022/10/24 00:01:00;;;;;;;;;;;;;;;26.35;46.79;94153.53;4948522;28;7272;-60
2022/10/24 00:03:27;;;;;;;;;;;;;;;26.33;46.53;94147.78;4959793;28;9608;-60
2022/10/24 00:05:58;;;;;;;;;;;;;;;26.35;45.95;94155.53;4965232;28;7004;-60
2022/10/24 00:08:24;;;;;;;;;;;;;;;26.35;46.19;94158.28;4963985;28;7164;-60
2022/10/24 00:10:50;;;;;;;;;;;;;;;26.35;46.28;94167.31;4966407;28;6964;-59
2022/10/24 00:13:18;;;;;;;;;;;;;;;26.34;46.87;94176.13;4992328;28;7353;-60
2022/10/24 00:15:48;;;;;;;;;;;;;;;26.33;46.83;94193.91;4974464;28;7134;-60
2022/10/24 00:18:14;;;;;;;;;;;;;;;26.33;46.48;94194.66;4989794;28;7478;-60
2022/10/24 00:20:54;;;;;;;;;;;;;;;26.37;46.64;94210.91;4977137;28;6979;-60
2022/10/24 00:23:29;;;;;;;;;;;;;;;26.34;46.65;94200.94;4993088;28;7121;-60
2022/10/24 00:26:04;;;;;;;;;;;;;;;26.31;46.98;94213.75;4966696;28;7053;-60
2022/10/24 00:28:34;;;;;;;;;;;;;;;26.31;46.92;94240.56;4965771;28;7877;-60
2022/10/24 00:31:04;;;;;;;;;;;;;;;26.29;46.97;94254.88;5019344;28;9469;-60
2022/10/24 00:33:45;;;;;;;;;;;;;;;26.30;46.49;94266.63;5028114;28;9393;-60
2022/10/24 00:36:28;;;;;;;;;;;;;;;26.30;46.32;94230.78;5033706;28;9835;-60
2022/10/24 00:39:10;;;;;;;;;;;;;;;26.30;46.84;94233.53;5032878;28;7845;-60
2022/10/24 00:41:46;;;;;;;;;;;;;;;26.33;46.77;94219.47;5042700;28;8709;-60
2022/10/24 00:44:31;;;;;;;;;;;;;;;26.33;46.16;94216.72;5033996;28;7474;-60
2022/10/24 00:47:13;;;;;;;;;;;;;;;26.32;46.51;94204.19;5050876;28;6958;-60
2022/10/24 00:49:50;;;;;;;;;;;;;;;26.32;46.30;94201.44;5050679;28;7229;-60
2022/10/24 00:52:25;;;;;;;;;;;;;;;26.30;46.99;94205.97;5034880;28;7008;-60
2022/10/24 00:55:23;;;;;;;;;;;;;;;26.30;46.91;94214.25;5034267;28;8881;-60
2022/10/24 00:58:11;;;;;;;;;;;;;;;26.30;46.89;94214.25;5033502;28;7516;-60
2022/10/24 01:00:44;;;;;;;;;;;;;;;26.29;46.91;94201.72;5028470;28;9079;-60
2022/10/24 01:03:14;;;;;;;;;;;;;;;26.32;46.85;94195.19;5040239;28;7401;-60
2022/10/24 01:06:05;;;;;;;;;;;;;;;26.31;46.29;94201.97;5028519;28;7372;-60
2022/10/24 01:08:43;;;;;;;;;;;;;;;26.31;46.77;94218.50;5026411;28;7055;-60
2022/10/24 01:11:18;;;;;;;;;;;;;;;26.31;46.37;94218.50;5031265;28;7211;-60
2022/10/24 01:14:03;;;;;;;;;;;;;;;26.27;46.59;94221.56;5031486;28;7373;-60
2022/10/24 01:16:53;;;;;;;;;;;;;;;26.27;46.33;94213.28;5032462;28;7160;-60
2022/10/24 01:19:38;;;;;;;;;;;;;;;26.29;46.89;94208.00;5043875;28;9001;-60
2022/10/24 01:22:21;;;;;;;;;;;;;;;26.27;46.70;94220.81;5045526;28;9351;-60
2022/10/24 01:25:07;;;;;;;;;;;;;;;26.27;46.02;94216.03;5045066;28;7226;-60
2022/10/24 01:27:58;;;;;;;;;;;;;;;26.27;45.99;94229.06;5034186;28;7144;-60
2022/10/24 01:30:36;;;;;;;;;;;;;;;26.26;46.50;94227.56;5029233;28;7705;-60
2022/10/24 01:33:16;;;;;;;;;;;;;;;26.23;46.40;94240.38;5030706;28;7135;-60
2022/10/24 01:36:08;;;;;;;;;;;;;;;26.25;46.56;94242.63;5032302;28;7452;-60
2022/10/24 01:38:58;;;;;;;;;;;;;;;26.24;46.75;94233.63;5031223;28;8194;-60
2022/10/24 01:41:30;;;;;;;;;;;;;;;26.25;46.72;94215.81;5033240;28;7049;-60
2022/10/24 01:44:08;;;;;;;;;;;;;;;26.25;46.74;94215.06;5032040;28;9353;-60
2022/10/24 01:46:49;;;;;;;;;;;;;;;26.24;46.56;94216.31;5022543;28;7335;-60
2022/10/24 01:49:19;;;;;;;;;;;;;;;26.27;46.54;94212.53;5029878;28;7333;-60
2022/10/24 01:52:08;;;;;;;;;;;;;;;26.27;46.00;94207.03;5030956;28;7279;-60
2022/10/24 01:54:37;;;;;;;;;;;;;;;26.26;46.23;94208.28;5044067;28;7149;-60
2022/10/24 01:57:14;;;;;;;;;;;;;;;26.24;46.69;94202.53;5065859;28;7367;-60
2022/10/24 01:59:50;;;;;;;;;;;;;;;26.23;46.40;94203.81;5048678;28;7394;-60
2022/10/24 02:02:33;;;;;;;;;;;;;;;26.26;46.07;94197.25;5048719;28;8654;-60
2022/10/24 02:05:14;;;;;;;;;;;;;;;26.24;46.66;94197.03;5031490;28;7028;-60
2022/10/24 02:07:46;;;;;;;;;;;;;;;26.23;46.65;94190.75;5031509;28;7361;-60
2022/10/24 02:10:33;;;;;;;;;;;;;;;26.24;46.45;94177.72;5024628;28;6956;-60
2022/10/24 02:13:13;;;;;;;;;;;;;;;26.25;45.71;94177.22;5038204;28;7067;-60
2022/10/24 02:15:47;;;;;;;;;;;;;;;26.25;46.24;94179.97;5026894;28;7277;-60
2022/10/24 02:18:15;;;;;;;;;;;;;;;26.22;46.22;94172.75;5031408;28;7447;-60
2022/10/24 02:20:58;;;;;;;;;;;;;;;26.23;46.35;94167.97;5048224;28;9073;-60
2022/10/24 02:23:43;;;;;;;;;;;;;;;26.22;46.34;94175.50;5039795;28;9190;-60
2022/10/24 02:26:20;;;;;;;;;;;;;;;26.24;46.19;94180.47;5023507;28;7402;-60
2022/10/24 02:28:51;;;;;;;;;;;;;;;26.23;46.57;94184.53;5017809;28;8961;-60
2022/10/24 02:31:27;;;;;;;;;;;;;;;26.22;46.25;94181.00;5033215;28;9057;-60
2022/10/24 02:34:07;;;;;;;;;;;;;;;26.21;46.45;94167.75;5029333;28;7222;-60
2022/10/24 02:36:37;;;;;;;;;;;;;;;26.22;46.19;94166.47;5060330;28;7246;-59
2022/10/24 02:39:10;;;;;;;;;;;;;;;26.20;46.04;94163.50;5029505;28;7183;-60
2022/10/24 02:41:42;;;;;;;;;;;;;;;26.19;46.59;94168.25;5031671;28;7385;-60
2022/10/24 02:44:19;;;;;;;;;;;;;;;26.20;45.98;94180.78;5036232;28;7136;-60
2022/10/24 02:47:07;;;;;;;;;;;;;;;26.19;46.66;94193.06;5032709;28;7312;-60
2022/10/24 02:49:42;;;;;;;;;;;;;;;26.18;46.05;94166.78;5047539;28;7377;-60
2022/10/24 02:52:41;;;;;;;;;;;;;;;26.18;46.45;94183.31;5025964;28;6980;-60
2022/10/24 02:55:08;;;;;;;;;;;;;;;26.16;46.47;94180.34;5028962;28;9082;-60
2022/10/24 02:57:46;;;;;;;;;;;;;;;26.15;45.97;94182.34;5032096;28;7301;-60
2022/10/24 03:00:17;;;;;;;;;;;;;;;26.14;46.14;94186.34;5009434;28;9417;-61
2022/10/24 03:02:54;;;;;;;;;;;;;;;26.15;46.10;94187.84;5030861;28;7251;-60
2022/10/24 03:05:22;;;;;;;;;;;;;;;26.14;46.43;94189.09;5032963;28;7040;-60
2022/10/24 03:07:54;;;;;;;;;;;;;;;26.12;46.59;94191.63;5043796;28;6967;-60
2022/10/24 03:10:30;;;;;;;;;;;;;;;26.12;46.42;94204.69;5025911;28;7204;-60
2022/10/24 03:12:59;;;;;;;;;;;;;;;26.12;46.11;94213.69;5041483;28;7274;-60
2022/10/24 03:15:25;;;;;;;;;;;;;;;26.12;45.75;94207.44;5026511;28;7655;-60
2022/10/24 03:17:53;;;;;;;;;;;;;;;26.09;46.04;94205.72;5030009;28;6979;-60
2022/10/24 03:20:19;;;;;;;;;;;;;;;26.10;46.71;94209.97;5035799;28;8663;-60
2022/10/24 03:22:45;;;;;;;;;;;;;;;26.08;46.64;94204.19;5015511;28;7199;-60
2022/10/24 03:25:11;;;;;;;;;;;;;;;26.07;46.11;94200.72;5022598;28;9389;-60
2022/10/24 03:27:53;;;;;;;;;;;;;;;26.09;45.65;94209.22;5022857;28;8726;-60
2022/10/24 03:30:22;;;;;;;;;;;;;;;26.09;46.81;94206.47;5053897;28;9136;-60
2022/10/24 03:32:48;;;;;;;;;;;;;;;26.08;46.16;94201.44;5031206;28;7254;-60
2022/10/24 03:35:24;;;;;;;;;;;;;;;26.08;46.35;94207.72;5032035;28;7061;-60
2022/10/24 03:37:52;;;;;;;;;;;;;;;26.09;45.88;94203.72;5031257;28;9068;-60
2022/10/24 03:40:18;;;;;;;;;;;;;;;26.08;46.36;94196.69;5032054;28;8301;-60
2022/10/24 03:42:43;;;;;;;;;;;;;;;26.06;46.58;94193.69;5027746;28;7111;-60
2022/10/24 03:45:09;;;;;;;;;;;;;;;26.08;46.42;94185.69;5027062;28;6950;-60
2022/10/24 03:47:36;;;;;;;;;;;;;;;26.08;46.11;94179.38;5027704;28;6989;-60
2022/10/24 03:50:03;;;;;;;;;;;;;;;26.08;45.76;94151.81;5036174;28;7274;-60
2022/10/24 03:52:33;;;;;;;;;;;;;;;26.06;46.75;94144.09;5028435;28;7480;-60
2022/10/24 03:55:03;;;;;;;;;;;;;;;26.07;46.55;94144.84;5039549;28;7885;-60
2022/10/24 03:57:29;;;;;;;;;;;;;;;26.08;45.91;94136.06;5025852;28;7303;-60
2022/10/24 03:59:56;;;;;;;;;;;;;;;26.07;46.00;94095.97;5047164;28;8551;-60
2022/10/24 04:02:21;;;;;;;;;;;;;;;26.09;46.45;94121.03;5025237;28;6968;-60
2022/10/24 04:04:50;;;;;;;;;;;;;;;26.07;46.39;94134.56;5032656;28;7245;-60
2022/10/24 04:07:19;;;;;;;;;;;;;;;26.04;46.65;94154.88;5028953;28;10140;-59
2022/10/24 04:09:48;;;;;;;;;;;;;;;26.04;46.34;94167.91;5031520;28;6897;-60
2022/10/24 04:12:14;;;;;;;;;;;;;;;26.02;46.16;94176.69;5031845;28;7335;-59
2022/10/24 04:14:40;;;;;;;;;;;;;;;26.02;46.23;94196.00;5040936;28;7001;-60
2022/10/24 04:17:06;;;;;;;;;;;;;;;26.02;46.49;94189.72;5052901;28;7193;-60
2022/10/24 04:19:32;;;;;;;;;;;;;;;26.01;46.34;94197.25;5033843;28;7226;-60
2022/10/24 04:22:07;;;;;;;;;;;;;;;26.00;46.66;94193.00;5049976;28;7013;-59
2022/10/24 04:24:42;;;;;;;;;;;;;;;26.03;48.03;94205.00;5034617;28;7163;-59
2022/10/24 04:27:16;;;;;;;;;;;;;;;26.04;47.46;94193.47;5048180;28;7238;-59
2022/10/24 04:29:44;;;;;;;;;;;;;;;26.06;46.89;94181.91;5047010;28;10703;-59
2022/10/24 04:32:39;;;;;;;;;;;;;;;26.08;46.83;94180.16;5024891;28;7056;-59
2022/10/24 04:35:15;;;;;;;;;;;;;;;26.05;46.39;94178.44;5013972;28;7096;-60
2022/10/24 04:37:51;;;;;;;;;;;;;;;26.03;46.08;94167.16;5038816;28;7464;-60
2022/10/24 04:40:29;;;;;;;;;;;;;;;26.00;46.27;94150.91;5034086;28;8438;-60
2022/10/24 04:42:56;;;;;;;;;;;;;;;25.98;46.55;94143.19;5038825;28;7926;-60
2022/10/24 04:45:33;;;;;;;;;;;;;;;25.98;46.22;94137.66;5032255;28;7412;-59
2022/10/24 04:48:22;;;;;;;;;;;;;;;25.98;46.34;94134.91;5029286;28;9121;-60
2022/10/24 04:51:02;;;;;;;;;;;;;;;25.96;47.19;94144.97;5024459;28;8731;-60
2022/10/24 04:53:33;;;;;;;;;;;;;;;25.92;46.60;94137.00;5038406;28;7418;-60
2022/10/24 04:55:59;;;;;;;;;;;;;;;25.93;47.23;94132.97;5016255;28;7171;-59
2022/10/24 04:58:56;;;;;;;;;;;;;;;25.95;46.28;94135.94;5038601;28;7317;-60
2022/10/24 05:01:22;;;;;;;;;;;;;;;25.96;46.50;94131.19;5035038;28;8922;-60
2022/10/24 05:03:48;;;;;;;;;;;;;;;25.97;46.63;94127.16;5030353;28;7314;-59
2022/10/24 05:06:14;;;;;;;;;;;;;;;25.95;46.95;94113.16;5018931;28;6986;-60
2022/10/24 05:08:49;;;;;;;;;;;;;;;25.95;47.04;94110.38;5023838;28;7056;-60
2022/10/24 05:11:26;;;;;;;;;;;;;;;25.94;46.96;94109.66;4994471;28;8329;-60
2022/10/24 05:14:13;;;;;;;;;;;;;;;25.97;46.40;94111.38;4969668;28;7196;-60
2022/10/24 05:16:39;;;;;;;;;;;;;;;25.93;46.71;94102.66;4992182;28;7569;-60
2022/10/24 05:19:05;;;;;;;;;;;;;;;25.94;46.79;94104.16;4973398;28;9546;-60
2022/10/24 05:21:35;;;;;;;;;;;;;;;25.95;46.77;94108.38;4975568;28;6966;-60
2022/10/24 05:24:01;;;;;;;;;;;;;;;25.96;46.83;94104.38;4971911;28;7282;-60
2022/10/24 05:26:38;;;;;;;;;;;;;;;25.97;47.28;94099.59;4976073;28;9093;-60
2022/10/24 05:29:12;;;;;;;;;;;;;;;25.98;47.10;94103.84;4987183;28;7049;-60
2022/10/24 05:31:39;;;;;;;;;;;;;;;25.98;46.95;94121.13;4991223;28;9105;-60
2022/10/24 05:34:27;;;;;;;;;;;;;;;25.97;46.50;94105.09;4972338;28;9463;-60
2022/10/24 05:36:59;;;;;;;;;;;;;;;25.96;46.78;94092.59;4999960;28;7358;-60
2022/10/24 05:39:33;;;;;;;;;;;;;;;25.95;46.79;94085.59;5033542;28;7279;-60
2022/10/24 05:42:05;;;;;;;;;;;;;;;25.94;46.55;94081.34;5045464;28;7050;-60
2022/10/24 05:44:40;;;;;;;;;;;;;;;25.93;46.31;94075.09;5032766;28;7297;-60
2022/10/24 05:47:07;;;;;;;;;;;;;;;25.96;46.45;94090.59;5032488;28;7340;-60
2022/10/24 05:49:42;;;;;;;;;;;;;;;25.93;47.05;94102.66;5038563;28;9076;-60
2022/10/24 05:52:08;;;;;;;;;;;;;;;25.91;46.87;94104.44;5033148;28;9579;-60
2022/10/24 05:54:42;;;;;;;;;;;;;;;25.92;46.73;94117.72;5049411;28;7118;-60
2022/10/24 05:57:18;;;;;;;;;;;;;;;25.90;46.76;94114.69;5030249;28;7138;-60
2022/10/24 06:00:10;;;;;;;;;;;;;;;25.93;46.82;94126.69;5032080;28;7254;-60
2022/10/24 06:02:36;;;;;;;;;;;;;;;25.91;47.32;94137.50;5032154;28;7291;-60
2022/10/24 06:05:08;;;;;;;;;;;;;;;25.91;46.96;94141.00;5032465;28;7311;-60
2022/10/24 06:07:40;;;;;;;;;;;;;;;25.93;46.76;94146.75;5032180;28;7037;-60
2022/10/24 06:10:21;;;;;;;;;;;;;;;25.93;47.05;94141.22;5032094;28;7175;-60
2022/10/24 06:12:50;;;;;;;;;;;;;;;25.95;46.98;94149.72;5026853;28;9782;-60
2022/10/24 06:15:18;;;;;;;;;;;;;;;25.93;47.36;94162.53;5053217;28;7249;-60
2022/10/24 06:17:46;;;;;;;;;;;;;;;25.94;46.66;94162.03;5056975;28;7824;-60
2022/10/24 06:20:12;;;;;;;;;;;;;;;25.93;47.19;94157.75;5033449;28;7024;-60
2022/10/24 06:22:38;;;;;;;;;;;;;;;25.89;47.12;94167.59;5031792;28;7001;-60
2022/10/24 06:25:40;;;;;;;;;;;;;;;25.90;47.24;94180.84;5033176;28;7212;-60
2022/10/24 06:28:18;;;;;;;;;;;;;;;25.85;46.77;94167.88;5011005;28;7243;-60
2022/10/24 06:30:56;;;;;;;;;;;;;;;25.86;47.07;94172.13;4994085;28;7413;-60
2022/10/24 06:33:31;;;;;;;;;;;;;;;25.86;46.70;94174.16;5009842;28;6852;-60
2022/10/24 06:36:03;;;;;;;;;;;;;;;25.87;47.23;94161.84;4986289;28;7423;-60
2022/10/24 06:38:58;;;;;;;;;;;;;;;25.87;46.70;94165.34;5012576;28;8478;-60
2022/10/24 06:41:34;;;;;;;;;;;;;;;25.83;46.94;94158.63;4948682;28;8924;-60
2022/10/24 06:44:08;;;;;;;;;;;;;;;25.82;47.60;94151.63;4938584;28;7348;-60
2022/10/24 06:46:50;;;;;;;;;;;;;;;25.86;47.52;94152.09;4939196;28;7593;-60
2022/10/24 06:49:19;;;;;;;;;;;;;;;25.82;47.28;94162.66;4953307;28;8202;-60
2022/10/24 06:52:14;;;;;;;;;;;;;;;25.80;47.22;94167.94;4953052;28;7275;-59
2022/10/24 06:54:44;;;;;;;;;;;;;;;25.77;47.65;94174.50;4907975;29;6984;-60
2022/10/24 06:57:10;;;;;;;;;;;;;;;25.79;47.62;94177.47;4906261;29;7233;-60
2022/10/24 06:59:56;;;;;;;;;;;;;;;25.81;46.92;94188.72;4907147;29;7383;-59
2022/10/24 07:02:23;;;;;;;;;;;;;;;25.82;46.53;94182.69;4918918;28;7200;-60
2022/10/24 07:05:02;;;;;;;;;;;;;;;25.82;46.62;94179.94;4951078;28;7564;-60
2022/10/24 07:07:36;;;;;;;;;;;;;;;25.76;47.00;94165.47;4926595;28;7137;-60
2022/10/24 07:10:13;;;;;;;;;;;;;;;25.78;46.98;94173.22;4951943;28;7296;-60
2022/10/24 07:12:54;;;;;;;;;;;;;;;25.80;47.40;94168.69;4953026;28;7285;-60
2022/10/24 07:15:30;;;;;;;;;;;;;;;25.81;49.75;94172.94;4930735;28;9292;-60
2022/10/24 07:17:55;;;;;;;;;;;;;;;25.82;48.20;94174.41;4970387;28;7000;-60
2022/10/24 07:20:21;;;;;;;;;;;;;;;25.82;47.80;94168.91;4998837;28;9165;-60
2022/10/24 07:22:47;;;;;;;;;;;;;;;25.82;48.23;94157.13;4971107;28;7728;-60
2022/10/24 07:25:23;;;;;;;;;;;;;;;25.83;47.50;94155.88;5002832;28;7224;-60
2022/10/24 07:27:51;;;;;;;;;;;;;;;25.80;47.78;94154.91;4972870;28;9479;-60
2022/10/24 07:30:19;;;;;;;;;;;;;;;25.82;47.71;94149.63;4991956;28;7391;-61
2022/10/24 07:32:54;;;;;;;;;;;;;;;25.84;47.27;94144.34;5021779;28;7002;-60
2022/10/24 07:35:22;;;;;;;;;;;;;;;25.85;47.53;94151.34;5037724;28;8784;-60
2022/10/24 07:37:49;;;;;;;;;;;;;;;25.86;47.51;94147.31;5029897;28;6979;-60
2022/10/24 07:40:16;;;;;;;;;;;;;;;25.86;47.50;94130.06;5059117;28;8692;-60
2022/10/24 07:42:50;;;;;;;;;;;;;;;25.86;47.73;94130.78;5028238;28;7226;-60
2022/10/24 07:45:19;;;;;;;;;;;;;;;25.86;46.94;94133.53;5027937;28;7262;-60
2022/10/24 07:47:48;;;;;;;;;;;;;;;25.87;47.24;94135.03;5030900;28;6934;-60
2022/10/24 07:50:20;;;;;;;;;;;;;;;25.86;47.60;94130.06;5034096;28;7229;-60
2022/10/24 07:52:46;;;;;;;;;;;;;;;25.84;47.29;94143.59;5033561;28;7979;-60
2022/10/24 07:55:24;;;;;;;;;;;;;;;25.84;47.48;94149.84;5018073;28;7358;-60
2022/10/24 07:57:57;;;;;;;;;;;;;;;25.82;47.37;94168.16;5046657;28;7112;-60
2022/10/24 08:00:23;;;;;;;;;;;;;;;25.84;47.24;94171.88;5031545;28;7142;-60
2022/10/24 08:03:08;;;;;;;;;;;;;;;25.86;47.77;94177.63;5035477;28;7219;-60
2022/10/24 08:05:46;;;;;;;;;;;;;;;25.84;47.33;94176.66;5027179;28;6985;-60
2022/10/24 08:08:26;;;;;;;;;;;;;;;25.83;47.88;94189.69;5034664;28;7665;-60
2022/10/24 08:11:10;;;;;;;;;;;;;;;25.81;47.64;94208.00;5042989;28;6994;-60
2022/10/24 08:13:49;;;;;;;;;;;;;;;25.81;47.73;94221.78;5033121;28;7390;-60
2022/10/24 08:16:23;;;;;;;;;;;;;;;25.79;48.20;94240.84;5033462;28;7016;-60
2022/10/24 08:18:52;;;;;;;;;;;;;;;25.79;47.32;94252.59;5034889;28;7169;-60
2022/10/24 08:21:20;;;;;;;;;;;;;;;25.77;48.29;94241.34;5047361;28;7329;-60
2022/10/24 08:23:52;;;;;;;;;;;;;;;25.77;48.05;94244.13;5033349;28;7298;-60
2022/10/24 08:26:47;;;;;;;;;;;;;;;25.77;48.27;94257.88;5034165;28;8956;-60
2022/10/24 08:29:21;;;;;;;;;;;;;;;25.76;48.04;94289.44;5030927;28;8714;-60
2022/10/24 08:31:54;;;;;;;;;;;;;;;25.78;47.58;94300.69;5034220;28;7259;-60
2022/10/24 08:34:21;;;;;;;;;;;;;;;25.77;47.68;94293.69;5033161;28;9016;-60
2022/10/24 08:36:48;;;;;;;;;;;;;;;25.75;47.50;94287.22;5034962;28;7226;-60
2022/10/24 08:39:18;;;;;;;;;;;;;;;25.75;47.90;94270.69;5045519;28;7227;-60
2022/10/24 08:42:02;;;;;;;;;;;;;;;25.73;48.52;94271.19;5030909;28;7307;-60
2022/10/24 08:44:46;;;;;;;;;;;;;;;25.73;48.06;94268.41;5030989;28;7076;-60
2022/10/24 08:47:31;;;;;;;;;;;;;;;25.73;48.46;94256.69;5033851;28;7240;-60
2022/10/24 08:50:25;;;;;;;;;;;;;;;25.71;47.80;94265.44;5026871;28;7355;-60
2022/10/24 08:53:20;;;;;;;;;;;;;;;25.77;48.32;94276.41;5049942;28;8494;-60
2022/10/24 08:56:13;;;;;;;;;;;;;;;25.78;47.48;94278.66;5033939;28;7278;-60
2022/10/24 08:58:45;;;;;;;;;;;;;;;25.82;47.84;94268.09;5032696;28;9270;-60
2022/10/24 09:01:22;;;;;;;;;;;;;;;25.83;47.96;94268.84;5033835;28;7251;-60
2022/10/24 09:03:51;;;;;;;;;;;;;;;25.81;47.81;94280.38;5023327;28;7529;-60
2022/10/24 09:06:52;;;;;;;;;;;;;;;25.83;47.95;94305.41;5033656;28;6986;-60
2022/10/24 09:09:45;;;;;;;;;;;;;;;25.84;47.65;94298.63;5035574;28;9449;-60
2022/10/24 09:12:19;;;;;;;;;;;;;;;25.88;48.06;94273.56;5054674;28;7235;-60
2022/10/24 09:15:15;;;;;;;;;;;;;;;25.88;47.65;94271.53;5023681;28;7438;-60
2022/10/24 09:17:46;;;;;;;;;;;;;;;25.84;47.57;94298.63;5016403;28;7276;-60
2022/10/24 09:20:32;;;;;;;;;;;;;;;25.89;47.82;94310.88;5035056;28;7931;-60
2022/10/24 09:23:04;;;;;;;;;;;;;;;25.89;48.26;94328.16;5040621;28;7286;-60
2022/10/24 09:25:46;;;;;;;;;;;;;;;25.91;47.94;94333.13;5040590;28;8402;-60
2022/10/24 09:28:13;;;;;;;;;;;;;;;25.87;47.79;94325.16;5031030;28;7232;-60
2022/10/24 09:30:50;;;;;;;;;;;;;;;25.84;48.18;94326.19;5017648;28;7245;-60
2022/10/24 09:33:34;;;;;;;;;;;;;;;25.80;47.80;94322.97;5031730;28;7303;-60
2022/10/24 09:36:02;;;;;;;;;;;;;;;25.79;48.17;94317.97;5024910;28;7175;-60
2022/10/24 09:38:35;;;;;;;;;;;;;;;25.79;47.66;94321.47;5018654;28;9168;-60
2022/10/24 09:41:12;;;;;;;;;;;;;;;25.79;47.94;94324.25;5041413;28;8514;-60
2022/10/24 09:43:58;;;;;;;;;;;;;;;25.77;48.14;94329.53;5039240;28;7336;-60
2022/10/24 09:46:46;;;;;;;;;;;;;;;25.76;47.69;94341.78;5032013;28;8995;-60
2022/10/24 09:49:34;;;;;;;;;;;;;;;25.79;47.78;94340.78;5037687;28;7305;-60
2022/10/24 09:52:18;;;;;;;;;;;;;;;25.83;48.36;94346.00;5027746;28;7268;-60
2022/10/24 09:55:02;;;;;;;;;;;;;;;25.82;47.66;94358.25;5028869;28;8875;-60
2022/10/24 09:57:38;;;;;;;;;;;;;;;25.84;48.32;94347.47;5030275;28;7476;-60
2022/10/24 10:00:21;;;;;;;;;;;;;;;25.87;47.48;94349.22;5030988;28;7431;-60
2022/10/24 10:03:16;;;;;;;;;;;;;;;25.88;47.75;94345.94;5039834;28;7496;-60
2022/10/24 10:06:08;;;;;;;;;;;;;;;25.91;47.56;94352.44;5030808;28;7884;-60
2022/10/24 10:08:38;;;;;;;;;;;;;;;25.91;48.26;94366.97;5031803;28;7370;-60
2022/10/24 10:11:33;;;;;;;;;;;;;;;25.91;47.85;94371.72;5038007;28;7405;-60
2022/10/24 10:14:23;;;;;;;;;;;;;;;25.91;48.16;94380.75;5032030;28;9733;-60
2022/10/24 10:17:30;;;;;;;;;;;;;;;25.90;47.83;94395.03;5031904;28;6986;-60
2022/10/24 10:19:57;;;;;;;;;;;;;;;25.88;48.28;94414.81;5028825;28;8514;-60
2022/10/24 10:22:27;;;;;;;;;;;;;;;25.84;47.94;94419.88;5029460;28;7836;-60
2022/10/24 10:24:55;;;;;;;;;;;;;;;25.81;47.48;94436.69;5043761;28;8479;-60
2022/10/24 10:27:49;;;;;;;;;;;;;;;25.75;48.20;94444.97;5063396;28;7295;-60
2022/10/24 10:30:28;;;;;;;;;;;;;;;25.77;48.12;94441.72;5023248;28;7491;-60
2022/10/24 10:33:14;;;;;;;;;;;;;;;25.74;48.46;94451.75;5031566;28;7899;-60
2022/10/24 10:36:17;;;;;;;;;;;;;;;25.71;47.83;94432.75;5036346;28;9027;-60
2022/10/24 10:39:27;;;;;;;;;;;;;;;25.69;48.77;94436.00;5032827;28;6964;-60
2022/10/24 10:42:15;;;;;;;;;;;;;;;25.68;48.18;94414.47;5031123;28;9234;-60
2022/10/24 10:45:12;;;;;;;;;;;;;;;25.68;48.03;94406.97;5033762;28;7249;-60
2022/10/24 10:48:16;;;;;;;;;;;;;;;25.68;47.97;94389.69;5024966;28;8999;-60
2022/10/24 10:51:08;;;;;;;;;;;;;;;25.68;48.60;94412.47;5032382;28;7334;-60
2022/10/24 10:53:44;;;;;;;;;;;;;;;25.69;47.78;94408.44;5032574;28;7189;-60
2022/10/24 10:59:57;;;;;;;;;;;;;;;25.68;48.76;94390.44;5023246;28;9457;-60
2022/10/24 11:02:42;;;;;;;;;;;;;;;25.70;47.76;94398.19;5031741;28;9010;-60
2022/10/24 11:05:50;;;;;;;;;;;;;;;25.67;47.87;94405.47;5030835;28;7060;-60
2022/10/24 11:08:45;;;;;;;;;;;;;;;25.71;48.57;94397.66;4999385;28;7277;-60
2022/10/24 11:11:31;;;;;;;;;;;;;;;25.71;48.00;94397.66;4972617;28;7030;-60
2022/10/24 11:14:20;;;;;;;;;;;;;;;25.73;48.38;94386.16;4971304;28;7525;-60
2022/10/24 11:16:51;;;;;;;;;;;;;;;25.72;48.55;94401.94;4981982;28;7479;-60
2022/10/24 11:19:31;;;;;;;;;;;;;;;25.71;48.25;94394.19;4987149;28;7216;-60
2022/10/24 11:22:03;;;;;;;;;;;;;;;25.69;48.44;94394.66;4980535;28;9307;-60
2022/10/24 11:24:47;;;;;;;;;;;;;;;25.68;48.28;94395.19;4987426;28;7525;-59
2022/10/24 11:27:25;;;;;;;;;;;;;;;25.69;48.54;94397.44;4994122;28;7135;-60
2022/10/24 11:30:04;;;;;;;;;;;;;;;25.69;48.42;94394.66;4973798;28;8896;-60
2022/10/24 11:33:06;;;;;;;;;;;;;;;25.73;47.95;94408.19;4990697;28;7278;-60
2022/10/24 11:35:39;;;;;;;;;;;;;;;25.71;48.13;94397.66;4990131;28;7061;-60
2022/10/24 11:38:54;;;;;;;;;;;;;;;25.71;48.73;94403.16;4998064;28;7666;-60
2022/10/24 11:41:48;;;;;;;;;;;;;;;25.68;48.43;94404.22;4991603;28;8311;-60
2022/10/24 11:44:40;;;;;;;;;;;;;;;25.66;48.19;94395.72;5008619;28;7394;-60
2022/10/24 11:47:23;;;;;;;;;;;;;;;25.71;48.52;94389.41;5020970;28;9467;-60
2022/10/24 11:50:15;;;;;;;;;;;;;;;25.72;48.15;94385.41;5020815;28;6987;-60
2022/10/24 11:52:53;;;;;;;;;;;;;;;25.73;48.57;94375.84;5032762;28;7113;-60
2022/10/24 11:55:37;;;;;;;;;;;;;;;25.74;48.04;94360.09;5015634;28;9320;-60
2022/10/24 11:58:22;;;;;;;;;;;;;;;25.77;48.45;94345.28;5034108;28;8621;-60
2022/10/24 12:01:16;;;;;;;;;;;;;;;25.79;48.28;94353.78;5025012;28;7240;-60
2022/10/24 12:04:06;;;;;;;;;;;;;;;25.80;48.51;94333.97;5008908;28;7087;-60
2022/10/24 12:07:20;;;;;;;;;;;;;;;25.80;47.93;94330.47;5013698;28;9537;-60
2022/10/24 12:09:55;;;;;;;;;;;;;;;25.82;48.08;94317.69;5019144;28;7346;-60
2022/10/24 12:12:46;;;;;;;;;;;;;;;25.82;48.07;94316.94;5025531;28;9333;-60
2022/10/24 12:15:30;;;;;;;;;;;;;;;25.82;48.48;94320.44;4994375;28;9171;-61
2022/10/24 12:18:07;;;;;;;;;;;;;;;25.84;48.19;94311.66;5014829;28;8791;-60
2022/10/24 12:20:38;;;;;;;;;;;;;;;25.85;47.65;94311.16;4987807;28;9578;-60
2022/10/24 12:23:08;;;;;;;;;;;;;;;25.84;47.94;94315.16;5015728;28;7489;-60
2022/10/24 12:26:22;;;;;;;;;;;;;;;25.86;48.33;94309.88;4987472;28;8810;-60
2022/10/24 12:29:05;;;;;;;;;;;;;;;25.85;47.40;94307.66;4992076;28;8696;-60
2022/10/24 12:31:43;;;;;;;;;;;;;;;25.83;48.18;94313.69;5028476;28;7267;-60
2022/10/24 12:34:21;;;;;;;;;;;;;;;25.80;48.30;94303.69;5027114;28;9031;-60
2022/10/24 12:37:10;;;;;;;;;;;;;;;25.80;47.73;94303.69;5034167;28;9029;-60
2022/10/24 12:39:41;;;;;;;;;;;;;;;25.83;48.54;94318.44;5033938;28;7954;-60
2022/10/24 12:42:25;;;;;;;;;;;;;;;25.84;48.16;94308.91;5040188;28;7087;-60
2022/10/24 12:45:06;;;;;;;;;;;;;;;25.84;47.65;94303.38;5048823;28;9274;-60
2022/10/24 12:47:41;;;;;;;;;;;;;;;25.83;47.70;94305.41;5032880;28;8079;-61
2022/10/24 12:50:22;;;;;;;;;;;;;;;25.83;47.82;94296.41;5028916;28;9597;-60
2022/10/24 12:53:14;;;;;;;;;;;;;;;25.81;47.77;94294.16;5031498;28;9160;-60
2022/10/24 12:55:42;;;;;;;;;;;;;;;25.82;47.55;94290.13;5034672;28;7656;-60
2022/10/24 12:58:35;;;;;;;;;;;;;;;25.82;47.48;94295.66;5033192;28;7111;-60
2022/10/24 13:01:23;;;;;;;;;;;;;;;25.81;48.13;94285.91;5023799;28;7243;-60
2022/10/24 13:04:09;;;;;;;;;;;;;;;25.81;48.54;94282.38;5025312;28;9718;-60
2022/10/24 13:07:08;;;;;;;;;;;;;;;25.80;48.17;94287.16;5034647;28;7540;-60
2022/10/24 13:10:06;;;;;;;;;;;;;;;25.81;47.76;94293.41;5032471;28;7405;-60
2022/10/24 13:13:16;;;;;;;;;;;;;;;25.79;47.99;94293.94;5033770;28;9741;-60
2022/10/24 13:16:32;;;;;;;;;;;;;;;25.80;48.38;94298.16;5048073;28;9612;-60
2022/10/24 13:19:13;;;;;;;;;;;;;;;25.79;47.85;94307.72;5031298;28;9394;-60
2022/10/24 13:21:53;;;;;;;;;;;;;;;25.79;48.41;94307.72;5049888;28;7328;-60
2022/10/24 13:24:34;;;;;;;;;;;;;;;25.78;47.83;94300.69;5031927;28;9031;-60
2022/10/24 13:27:06;;;;;;;;;;;;;;;25.79;47.96;94307.72;5032383;28;6990;-60
2022/10/24 13:29:32;;;;;;;;;;;;;;;25.77;47.80;94315.75;5032582;28;8970;-60
2022/10/24 13:32:06;;;;;;;;;;;;;;;25.74;47.84;94311.25;5033462;28;6983;-60
2022/10/24 13:34:53;;;;;;;;;;;;;;;25.74;47.65;94321.50;5048806;28;9374;-60
2022/10/24 13:37:33;;;;;;;;;;;;;;;25.72;48.50;94316.53;5049178;28;7296;-60
2022/10/24 13:40:28;;;;;;;;;;;;;;;25.71;48.00;94304.00;5029704;28;7207;-60
2022/10/24 13:43:13;;;;;;;;;;;;;;;25.69;48.42;94301.00;5032290;28;7205;-60
2022/10/24 13:46:03;;;;;;;;;;;;;;;25.73;48.37;94306.25;5032166;28;7634;-60
2022/10/24 13:48:33;;;;;;;;;;;;;;;25.74;48.25;94308.50;5030217;28;7390;-60
2022/10/24 13:51:24;;;;;;;;;;;;;;;25.76;47.96;94294.94;5032880;28;8972;-60
2022/10/24 13:53:58;;;;;;;;;;;;;;;25.75;48.14;94290.69;5025393;28;7244;-60
2022/10/24 13:56:38;;;;;;;;;;;;;;;25.71;47.96;94295.75;5025030;28;7326;-60
2022/10/24 13:59:06;;;;;;;;;;;;;;;25.69;48.53;94292.75;5045639;28;7386;-60